createdAt,value
2023-04-16T00:02:28.228Z,100105.25
2023-04-16T00:05:31.102Z,100107.44
2023-04-16T00:08:33.788Z,100103.44
2023-04-16T00:11:36.428Z,100112.91
2023-04-16T00:14:39.026Z,100115.53
2023-04-16T00:17:41.883Z,100113.44
2023-04-16T00:20:45.115Z,100109.72
2023-04-16T00:23:47.812Z,100114.50
2023-04-16T00:26:50.619Z,100109.28
2023-04-16T00:29:53.807Z,100116.31
2023-04-16T00:32:56.624Z,100118.37
2023-04-16T00:35:59.534Z,100126.22
2023-04-16T00:39:02.402Z,100130.50
2023-04-16T00:42:05.372Z,100136.25
2023-04-16T00:45:08.790Z,100127.31
2023-04-16T00:48:11.877Z,100132.09
2023-04-16T00:51:14.606Z,100127.97
2023-04-16T00:54:17.203Z,100141.06
2023-04-16T00:57:21.248Z,100136.78
2023-04-16T01:00:24.067Z,100135.16
2023-04-16T01:03:47.454Z,100127.16
2023-04-16T01:06:51.271Z,100139.94
2023-04-16T01:09:53.954Z,100139.94
2023-04-16T01:12:56.669Z,100139.94
2023-04-16T01:15:59.787Z,100143.38
2023-04-16T01:19:03.031Z,100136.50
2023-04-16T01:22:05.952Z,100142.84
2023-04-16T01:25:08.824Z,100143.53
2023-04-16T01:28:11.629Z,100145.03
2023-04-16T01:31:14.439Z,100144.19
2023-04-16T01:34:17.082Z,100140.91
2023-04-16T01:37:19.842Z,100140.91
2023-04-16T01:40:22.602Z,100143.53
2023-04-16T01:43:25.867Z,100143.53
2023-04-16T01:46:29.917Z,100146.28
2023-04-16T01:49:34.118Z,100142.69
2023-04-16T01:52:37.327Z,100143.00
2023-04-16T01:55:39.999Z,100145.31
2023-04-16T01:58:43.060Z,100147.25
2023-04-16T02:01:46.027Z,100143.66
2023-04-16T02:04:48.827Z,100150.41
2023-04-16T02:07:51.770Z,100147.25
2023-04-16T02:10:54.563Z,100145.75
2023-04-16T02:13:57.206Z,100151.97
2023-04-16T02:17:00.914Z,100163.78
2023-04-16T02:20:08.517Z,100155.78
2023-04-16T02:23:17.754Z,100160.19
2023-04-16T02:26:20.453Z,100152.06
2023-04-16T02:29:23.388Z,100157.72
2023-04-16T02:32:26.256Z,100161.00
2023-04-16T02:35:29.266Z,100161.53
2023-04-16T02:38:32.340Z,100170.38
2023-04-16T02:41:35.209Z,100170.38
2023-04-16T02:44:37.976Z,100168.44
2023-04-16T02:47:40.615Z,100164.84
2023-04-16T02:50:43.314Z,100167.31
2023-04-16T02:53:46.297Z,100162.91
2023-04-16T02:56:48.937Z,100167.16
2023-04-16T02:59:51.714Z,100168.12
2023-04-16T03:02:54.548Z,100174.47
2023-04-16T03:05:57.269Z,100173.66
2023-04-16T03:08:59.953Z,100175.31
2023-04-16T03:12:02.734Z,100175.59
2023-04-16T03:15:06.024Z,100181.94
2023-04-16T03:18:08.789Z,100185.53
2023-04-16T03:21:12.963Z,100185.53
2023-04-16T03:24:16.451Z,100194.19
2023-04-16T03:27:19.085Z,100190.63
2023-04-16T03:30:22.034Z,100193.37
2023-04-16T03:33:24.922Z,100195.31
2023-04-16T03:36:27.850Z,100198.75
2023-04-16T03:39:30.521Z,100201.50
2023-04-16T03:42:33.141Z,100211.16
2023-04-16T03:45:35.749Z,100214.72
2023-04-16T03:48:38.418Z,100207.72
2023-04-16T03:51:41.025Z,100210.31
2023-04-16T03:54:43.778Z,100205.91
2023-04-16T03:57:46.381Z,100203.59
2023-04-16T04:00:49.216Z,100207.03
2023-04-16T04:03:52.115Z,100208.69
2023-04-16T04:06:54.803Z,100219.13
2023-04-16T04:09:57.402Z,100218.31
2023-04-16T04:13:00.759Z,100225.19
2023-04-16T04:16:04.156Z,100238.28
2023-04-16T04:19:06.995Z,100232.06
2023-04-16T04:22:09.770Z,100237.16
2023-04-16T04:25:12.480Z,100236.87
2023-04-16T04:28:20.326Z,100244.31
2023-04-16T04:31:23.065Z,100240.28
2023-04-16T04:34:25.773Z,100256.25
2023-04-16T04:37:28.553Z,100259.12
2023-04-16T04:40:31.401Z,100256.75
2023-04-16T04:43:34.221Z,100260.44
2023-04-16T04:46:36.915Z,100267.19
2023-04-16T04:49:40.113Z,100272.38
2023-04-16T04:52:42.748Z,100274.09
2023-04-16T04:55:45.705Z,100277.69
2023-04-16T04:58:52.742Z,100281.34
2023-04-16T05:01:55.637Z,100271.94
2023-04-16T05:04:58.397Z,100280.06
2023-04-16T05:08:01.177Z,100292.56
2023-04-16T05:11:03.953Z,100292.94
2023-04-16T05:14:06.765Z,100294.00
2023-04-16T05:17:11.006Z,100296.88
2023-04-16T05:20:13.804Z,100292.38
2023-04-16T05:23:16.548Z,100294.56
2023-04-16T05:26:19.367Z,100299.50
2023-04-16T05:29:22.203Z,100302.66
2023-04-16T05:32:27.333Z,100301.37
2023-04-16T05:35:30.091Z,100290.50
2023-04-16T05:38:32.904Z,100297.25
2023-04-16T05:41:35.562Z,100304.16
2023-04-16T05:44:38.304Z,100310.88
2023-04-16T05:47:41.021Z,100311.56
2023-04-16T05:50:46.718Z,100306.31
2023-04-16T05:53:49.308Z,100313.06
2023-04-16T05:56:52.050Z,100317.03
2023-04-16T05:59:54.812Z,100318.53
2023-04-16T06:02:57.791Z,100325.97
2023-04-16T06:06:00.878Z,100330.91
2023-04-16T06:09:07.124Z,100328.50
2023-04-16T06:12:09.892Z,100338.91
2023-04-16T06:15:12.571Z,100341.09
2023-04-16T06:18:15.293Z,100347.00
2023-04-16T06:21:18.029Z,100353.28
2023-04-16T06:24:20.904Z,100352.31
2023-04-16T06:27:23.594Z,100349.69
2023-04-16T06:30:26.534Z,100353.50
2023-04-16T06:33:29.264Z,100352.37
2023-04-16T06:36:31.992Z,100353.88
2023-04-16T06:39:34.660Z,100358.84
2023-04-16T06:42:37.572Z,100358.53
2023-04-16T06:45:40.313Z,100356.44
2023-04-16T06:48:43.167Z,100356.47
2023-04-16T06:51:45.879Z,100363.75
2023-04-16T06:54:48.945Z,100359.37
2023-04-16T06:57:51.669Z,100360.38
2023-04-16T07:00:54.523Z,100360.59
2023-04-16T07:03:58.226Z,100366.28
2023-04-16T07:07:01.223Z,100365.13
2023-04-16T07:10:05.709Z,100371.09
2023-04-16T07:13:08.931Z,100363.25
2023-04-16T07:16:12.580Z,100370.59
2023-04-16T07:19:15.869Z,100363.72
2023-04-16T07:22:18.691Z,100366.53
2023-04-16T07:25:21.860Z,100361.97
2023-04-16T07:28:25.530Z,100369.56
2023-04-16T07:31:28.671Z,100368.91
2023-04-16T07:34:31.626Z,100375.63
2023-04-16T07:37:34.490Z,100380.28
2023-04-16T07:40:37.387Z,100379.31
2023-04-16T07:43:40.096Z,100384.06
2023-04-16T07:46:46.748Z,100377.44
2023-04-16T07:49:50.859Z,100385.19
2023-04-16T07:52:53.769Z,100379.47
2023-04-16T07:55:56.527Z,100378.97
2023-04-16T07:59:05.249Z,100373.56
2023-04-16T08:02:18.114Z,100378.50
2023-04-16T08:05:21.656Z,100377.03
2023-04-16T08:08:24.451Z,100378.50
2023-04-16T08:11:27.550Z,100372.78
2023-04-16T08:14:31.074Z,100376.34
2023-04-16T08:17:35.114Z,100385.56
2023-04-16T08:20:37.951Z,100386.22
2023-04-16T08:23:41.003Z,100382.56
2023-04-16T08:26:43.749Z,100381.75
2023-04-16T08:29:46.565Z,100383.34
2023-04-16T08:32:50.264Z,100386.88
2023-04-16T08:35:56.427Z,100388.03
2023-04-16T08:38:59.147Z,100398.31
2023-04-16T08:42:05.356Z,100404.66
2023-04-16T08:45:14.010Z,100406.47
2023-04-16T08:48:16.812Z,100409.47
2023-04-16T08:51:20.337Z,100416.06
2023-04-16T08:54:35.583Z,100412.44
2023-04-16T08:58:00.007Z,100414.56
2023-04-16T09:01:06.549Z,100415.72
2023-04-16T09:04:09.747Z,100417.13
2023-04-16T09:07:12.863Z,100416.44
2023-04-16T09:10:16.882Z,100422.97
2023-04-16T09:13:20.716Z,100429.91
2023-04-16T09:16:23.930Z,100432.53
2023-04-16T09:19:27.571Z,100424.88
2023-04-16T09:22:30.365Z,100427.66
2023-04-16T09:25:37.447Z,100423.28
2023-04-16T09:28:45.804Z,100426.59
2023-04-16T09:32:14.589Z,100420.94
2023-04-16T09:35:19.397Z,100429.22
2023-04-16T09:38:22.279Z,100420.25
2023-04-16T09:41:27.661Z,100418.34
2023-04-16T09:44:37.148Z,100418.47
2023-04-16T09:47:42.344Z,100416.69
2023-04-16T09:50:52.007Z,100418.34
2023-04-16T09:53:57.367Z,100423.28
2023-04-16T09:57:01.639Z,100424.41
2023-04-16T10:00:09.654Z,100419.22
2023-04-16T10:03:12.728Z,100425.56
2023-04-16T10:06:16.807Z,100424.44
2023-04-16T10:09:19.638Z,100430.22
2023-04-16T10:12:22.401Z,100424.84
2023-04-16T10:15:25.912Z,100427.50
2023-04-16T10:18:29.836Z,100431.66
2023-04-16T10:21:34.459Z,100437.59
2023-04-16T10:24:37.428Z,100430.50
2023-04-16T10:27:40.950Z,100429.63
2023-04-16T10:30:53.105Z,100430.50
2023-04-16T10:33:56.434Z,100423.66
2023-04-16T10:36:59.488Z,100418.62
2023-04-16T10:40:02.331Z,100416.37
2023-04-16T10:43:07.164Z,100420.13
2023-04-16T10:46:25.213Z,100426.69
2023-04-16T10:49:28.041Z,100428.56
2023-04-16T10:52:31.436Z,100433.19
2023-04-16T10:55:39.255Z,100436.25
2023-04-16T10:58:42.340Z,100431.31
2023-04-16T11:01:47.782Z,100438.97
2023-04-16T11:04:50.817Z,100437.25
2023-04-16T11:07:53.520Z,100434.94
2023-04-16T11:10:58.898Z,100433.59
2023-04-16T11:14:02.561Z,100441.06
2023-04-16T11:17:05.363Z,100437.16
2023-04-16T11:20:19.290Z,100453.41
2023-04-16T11:23:23.313Z,100440.37
2023-04-16T11:26:29.071Z,100439.75
2023-04-16T11:29:31.868Z,100438.09
2023-04-16T11:32:36.225Z,100432.59
2023-04-16T11:35:40.046Z,100425.41
2023-04-16T11:38:43.229Z,100419.28
2023-04-16T11:41:52.562Z,100422.56
2023-04-16T11:44:56.434Z,100424.09
2023-04-16T11:47:59.469Z,100426.25
2023-04-16T11:51:02.640Z,100420.34
2023-04-16T11:54:05.728Z,100428.16
2023-04-16T11:57:08.530Z,100422.56
2023-04-16T12:00:15.368Z,100424.09
2023-04-16T12:03:18.520Z,100421.56
2023-04-16T12:06:23.251Z,100419.31
2023-04-16T12:09:28.248Z,100421.97
2023-04-16T12:12:33.914Z,100412.53
2023-04-16T12:15:47.661Z,100413.13
2023-04-16T12:19:04.412Z,100406.53
2023-04-16T12:22:09.452Z,100402.16
2023-04-16T12:25:16.565Z,100397.53
2023-04-16T12:28:35.221Z,100394.56
2023-04-16T12:31:38.500Z,100393.34
2023-04-16T12:34:51.446Z,100398.41
2023-04-16T12:37:54.203Z,100392.25
2023-04-16T12:40:57.895Z,100386.97
2023-04-16T12:44:14.854Z,100381.22
2023-04-16T12:47:17.973Z,100374.50
2023-04-16T12:50:20.722Z,100380.13
2023-04-16T12:53:23.526Z,100382.56
2023-04-16T12:56:26.393Z,100372.81
2023-04-16T12:59:29.532Z,100373.94
2023-04-16T13:02:32.751Z,100363.19
2023-04-16T13:05:35.696Z,100371.72
2023-04-16T13:08:38.614Z,100363.25
2023-04-16T13:11:42.106Z,100370.38
2023-04-16T13:14:45.197Z,100365.53
2023-04-16T13:17:48.075Z,100356.53
2023-04-16T13:20:51.065Z,100352.75
2023-04-16T13:23:54.985Z,100349.94
2023-04-16T13:26:57.987Z,100354.81
2023-04-16T13:30:00.748Z,100342.34
2023-04-16T13:33:03.585Z,100342.16
2023-04-16T13:36:06.965Z,100345.06
2023-04-16T13:39:12.678Z,100335.94
2023-04-16T13:42:15.522Z,100331.09
2023-04-16T13:45:20.514Z,100342.47
2023-04-16T13:48:23.233Z,100340.62
2023-04-16T13:51:27.582Z,100347.69
2023-04-16T13:54:30.410Z,100346.28
2023-04-16T13:57:33.285Z,100344.19
2023-04-16T14:00:36.537Z,100337.91
2023-04-16T14:03:41.083Z,100340.38
2023-04-16T14:06:44.010Z,100341.41
2023-04-16T14:09:46.692Z,100350.19
2023-04-16T14:12:49.680Z,100345.50
2023-04-16T14:15:55.846Z,100348.16
2023-04-16T14:19:01.696Z,100335.44
2023-04-16T14:22:04.570Z,100341.22
2023-04-16T14:25:07.446Z,100340.41
2023-04-16T14:28:10.211Z,100344.50
2023-04-16T14:31:12.853Z,100333.06
2023-04-16T14:34:15.715Z,100331.69
2023-04-16T14:37:18.780Z,100324.63
2023-04-16T14:40:21.565Z,100321.19
2023-04-16T14:43:24.365Z,100320.31
2023-04-16T14:46:27.797Z,100328.09
2023-04-16T14:49:30.759Z,100324.78
2023-04-16T14:52:33.595Z,100326.56
2023-04-16T14:55:36.559Z,100331.63
2023-04-16T14:58:39.891Z,100325.44
2023-04-16T15:01:43.210Z,100327.66
2023-04-16T15:04:46.021Z,100331.75
2023-04-16T15:07:48.717Z,100327.34
2023-04-16T15:10:52.026Z,100339.03
2023-04-16T15:13:54.786Z,100332.22
2023-04-16T15:16:57.484Z,100327.84
2023-04-16T15:20:00.852Z,100328.69
2023-04-16T15:23:03.708Z,100328.13
2023-04-16T15:26:06.769Z,100334.66
2023-04-16T15:29:11.062Z,100342.41
2023-04-16T15:32:13.865Z,100340.72
2023-04-16T15:35:16.765Z,100345.00
2023-04-16T15:38:21.512Z,100344.66
2023-04-16T15:41:25.015Z,100338.69
2023-04-16T15:44:28.144Z,100338.00
2023-04-16T15:47:31.310Z,100344.31
2023-04-16T15:50:34.287Z,100341.03
2023-04-16T15:53:37.060Z,100335.53
2023-04-16T15:56:39.873Z,100346.28
2023-04-16T15:59:44.635Z,100336.00
2023-04-16T16:02:51.081Z,100335.84
2023-04-16T16:05:53.808Z,100338.44
2023-04-16T16:08:56.965Z,100338.06
2023-04-16T16:12:01.075Z,100338.63
2023-04-16T16:15:05.375Z,100344.84
2023-04-16T16:18:08.250Z,100341.44
2023-04-16T16:21:11.524Z,100340.75
2023-04-16T16:24:14.322Z,100335.00
2023-04-16T16:27:18.146Z,100342.25
2023-04-16T16:30:21.056Z,100338.16
2023-04-16T16:33:24.303Z,100342.13
2023-04-16T16:36:27.633Z,100337.78
2023-04-16T16:39:32.672Z,100331.78
2023-04-16T16:42:36.409Z,100333.91
2023-04-16T16:45:39.442Z,100342.31
2023-04-16T16:48:42.416Z,100343.50
2023-04-16T16:51:49.554Z,100337.25
2023-04-16T16:54:56.978Z,100347.56
2023-04-16T16:58:04.319Z,100334.06
2023-04-16T17:01:07.268Z,100342.37
2023-04-16T17:04:10.590Z,100338.66
2023-04-16T17:07:13.885Z,100346.66
2023-04-16T17:10:21.128Z,100335.78
2023-04-16T17:13:26.005Z,100340.44
2023-04-16T17:16:29.692Z,100343.00
2023-04-16T17:19:33.248Z,100342.34
2023-04-16T17:22:37.500Z,100338.63
2023-04-16T17:25:41.225Z,100342.44
2023-04-16T17:28:45.476Z,100342.34
2023-04-16T17:31:48.642Z,100342.72
2023-04-16T17:34:52.648Z,100349.56
2023-04-16T17:37:56.010Z,100343.62
2023-04-16T17:40:59.759Z,100350.44
2023-04-16T17:44:03.256Z,100354.06
2023-04-16T17:47:06.492Z,100349.97
2023-04-16T17:50:09.909Z,100350.31
2023-04-16T17:53:13.439Z,100350.69
2023-04-16T17:56:17.169Z,100351.22
2023-04-16T17:59:20.678Z,100346.94
2023-04-16T18:02:24.077Z,100354.41
2023-04-16T18:05:33.999Z,100361.06
2023-04-16T18:08:37.191Z,100362.41
2023-04-16T18:11:40.514Z,100367.88
2023-04-16T18:14:45.009Z,100371.88
2023-04-16T18:17:48.554Z,100377.34
2023-04-16T18:20:54.314Z,100385.44
2023-04-16T18:24:06.796Z,100389.25
2023-04-16T18:30:22.856Z,100390.16
2023-04-16T18:36:38.754Z,100405.31
2023-04-16T18:39:41.929Z,100405.53
2023-04-16T18:42:47.992Z,100403.75
2023-04-16T18:45:51.974Z,100409.38
2023-04-16T18:48:55.158Z,100409.06
2023-04-16T18:52:03.194Z,100408.28
2023-04-16T18:55:09.634Z,100408.78
2023-04-16T18:58:14.784Z,100414.91
2023-04-16T19:01:18.105Z,100414.75
2023-04-16T19:04:21.248Z,100413.13
2023-04-16T19:07:25.848Z,100418.25
2023-04-16T19:10:29.917Z,100412.19
2023-04-16T19:13:32.943Z,100417.13
2023-04-16T19:16:36.367Z,100414.34
2023-04-16T19:19:39.881Z,100420.09
2023-04-16T19:22:42.971Z,100418.97
2023-04-16T19:25:46.755Z,100421.13
2023-04-16T19:28:54.912Z,100414.53
2023-04-16T19:32:00.128Z,100414.88
2023-04-16T19:35:04.927Z,100424.13
2023-04-16T19:38:10.738Z,100418.69
2023-04-16T19:41:14.621Z,100416.69
2023-04-16T19:44:18.071Z,100415.22
2023-04-16T19:47:21.156Z,100414.56
2023-04-16T19:50:24.147Z,100414.56
2023-04-16T19:53:27.187Z,100406.34
2023-04-16T19:56:30.255Z,100405.69
2023-04-16T19:59:33.476Z,100410.63
2023-04-16T20:02:37.506Z,100398.12
2023-04-16T20:05:41.035Z,100404.22
2023-04-16T20:08:44.942Z,100409.81
2023-04-16T20:11:48.279Z,100403.37
2023-04-16T20:14:51.639Z,100400.41
2023-04-16T20:17:56.565Z,100392.69
2023-04-16T20:21:03.836Z,100401.41
2023-04-16T20:24:10.811Z,100407.66
2023-04-16T20:27:15.139Z,100397.78
2023-04-16T20:30:17.905Z,100404.88
2023-04-16T20:33:21.635Z,100405.19
2023-04-16T20:36:24.539Z,100403.56
2023-04-16T20:39:27.692Z,100397.94
2023-04-16T20:42:32.343Z,100402.41
2023-04-16T20:45:41.248Z,100401.09
2023-04-16T20:48:45.087Z,100397.78
2023-04-16T20:51:49.370Z,100396.81
2023-04-16T20:54:53.198Z,100396.97
2023-04-16T20:57:55.825Z,100394.50
2023-04-16T21:00:58.512Z,100390.06
2023-04-16T21:04:01.827Z,100385.13
2023-04-16T21:07:04.780Z,100383.31
2023-04-16T21:10:10.150Z,100381.16
2023-04-16T21:13:12.995Z,100386.28
2023-04-16T21:16:18.847Z,100396.16
2023-04-16T21:19:24.604Z,100386.59
2023-04-16T21:22:27.353Z,100374.25
2023-04-16T21:25:30.507Z,100364.88
2023-04-16T21:28:33.540Z,100375.41
2023-04-16T21:31:36.325Z,100371.12
2023-04-16T21:34:39.067Z,100372.94
2023-04-16T21:37:41.815Z,100373.78
2023-04-16T21:40:54.105Z,100369.31
2023-04-16T21:43:56.841Z,100365.22
2023-04-16T21:46:59.589Z,100362.09
2023-04-16T21:50:02.570Z,100370.44
2023-04-16T21:53:06.700Z,100373.91
2023-04-16T21:56:09.455Z,100371.09
2023-04-16T21:59:12.444Z,100371.75
2023-04-16T22:02:15.405Z,100373.06
2023-04-16T22:05:20.264Z,100373.41
2023-04-16T22:08:24.975Z,100372.41
2023-04-16T22:11:29.236Z,100366.16
2023-04-16T22:14:34.817Z,100362.53
2023-04-16T22:17:37.805Z,100353.16
2023-04-16T22:20:40.610Z,100355.31
2023-04-16T22:23:43.288Z,100347.91
2023-04-16T22:26:45.991Z,100353.34
2023-04-16T22:29:49.148Z,100344.44
2023-04-16T22:32:51.984Z,100348.25
2023-04-16T22:35:54.574Z,100352.34
2023-04-16T22:38:57.366Z,100347.09
2023-04-16T22:42:00.178Z,100341.50
2023-04-16T22:45:03.408Z,100342.63
2023-04-16T22:48:09.329Z,100344.63
2023-04-16T22:51:15.134Z,100339.19
2023-04-16T22:54:17.917Z,100333.59
2023-04-16T22:57:25.834Z,100332.94
2023-04-16T23:00:28.641Z,100333.56
2023-04-16T23:03:31.661Z,100334.84
2023-04-16T23:06:34.972Z,100332.37
2023-04-16T23:09:38.122Z,100325.66
2023-04-16T23:12:41.384Z,100323.62
2023-04-16T23:15:44.279Z,100318.84
2023-04-16T23:18:47.127Z,100312.78
2023-04-16T23:21:49.915Z,100313.25
2023-04-16T23:24:52.873Z,100305.22
2023-04-16T23:27:55.615Z,100304.56
2023-04-16T23:30:58.194Z,100300.12
2023-04-16T23:34:01.062Z,100302.75
2023-04-16T23:37:04.967Z,100308.81
2023-04-16T23:40:08.403Z,100302.41
2023-04-16T23:43:11.168Z,100299.44
2023-04-16T23:46:17.327Z,100298.63
2023-04-16T23:49:20.047Z,100302.41
2023-04-16T23:52:23.335Z,100300.44
2023-04-16T23:55:28.920Z,100298.13
2023-04-16T23:58:31.730Z,100295.66
